< Typhoon 199907 1999 Season Typhoon 199909 >
Typhoon 199908 (PAUL)
General InformationTrack Information on Google MapsDetailed Wind InformationList of All Images || Disaster Info.ResourceGoogle EarthGE AnimationAtom FeedGeoJSON
Detalied Best Track (Time Zone = UTC)
Year Month Day Hour Lat. Long. Pressure (hPa) Wind (kt) Class Image Chart
1999 8 3 00 19.0 140.0 1000 0 2 Image Chart
1999 8 3 06 19.8 140.0 1000 0 2 Image Chart
1999 8 3 12 20.9 139.1 1000 0 2 Image Chart
1999 8 3 18 21.0 138.9 1000 0 2 Image Chart
1999 8 4 00 22.1 138.9 996 0 2 Image Chart
1999 8 4 06 24.6 137.3 992 0 2 Image Chart
1999 8 4 12 25.5 136.1 990 35 3 Image Chart
1999 8 4 18 26.3 134.3 985 40 3 Image Chart
1999 8 5 00 27.0 133.1 985 40 3 Image Chart
1999 8 5 03 27.0 132.6 985 45 3 Image Chart
1999 8 5 06 27.0 132.3 980 45 3 Image Chart
1999 8 5 09 27.0 132.2 985 45 3 Image Chart
1999 8 5 12 27.0 132.2 985 45 3 Image Chart
1999 8 5 15 27.1 132.6 985 45 3 Image Chart
1999 8 5 18 27.2 133.0 985 45 3 Image Chart
1999 8 5 21 27.5 133.5 985 45 3 Image Chart
1999 8 6 00 27.9 133.8 985 45 3 Image Chart
1999 8 6 03 28.9 133.8 985 40 3 Image Chart
1999 8 6 06 30.0 133.1 985 40 3 Image Chart
1999 8 6 09 30.6 132.3 985 40 3 Image Chart
1999 8 6 12 30.7 131.9 990 35 3 Image Chart
1999 8 6 15 30.9 130.6 990 35 3 Image Chart
1999 8 6 18 31.4 129.7 990 35 3 Image Chart
1999 8 6 21 31.8 129.3 992 35 3 Image Chart
1999 8 7 00 32.6 128.8 992 35 3 Image Chart
1999 8 7 03 32.9 127.9 994 0 2 Image Chart
1999 8 7 06 33.2 126.9 994 0 2 Image Chart
1999 8 7 12 33.3 125.1 994 0 2 Image Chart
1999 8 7 18 33.3 123.2 996 0 2 Image Chart
1999 8 8 00 33.3 122.9 998 0 2 Image Chart
1999 8 8 06 33.4 122.1 998 0 2 Image Chart
1999 8 8 12 34.0 121.5 998 0 2 Image Chart
1999 8 8 18 34.5 120.9 998 0 2 Image Chart
1999 8 9 00 34.7 120.3 1000 0 2 Image Chart
1999 8 9 06 34.7 119.9 1000 0 2 Image Chart
Japan Meteorological Agency Best Track Data | Correction Date : 2005-03-01
< Typhoon 199907 1999 Season Typhoon 199909 >

Help